Airfield :











YOU CAN JOIN US ON...

 
LOGIN :

Register | Disclaimer

   EN    FR    IT 

 









Legend :    VFR   Marginal VFR   IFR   Intensive IFR   Very Intensive IFR
Visi :
Ceiling :
>= 8 km
>= 3000ft
5 to 8 km
1000 to 3000 ft
1500m to 5 km
500 to 1000 ft
800 to 1500m
200 to 500 ft
< 800m
< 200 ft
Symbols :   Thunderstorms  Fog  Heavy snow  Heavy precipitations  Wind > 20 kt






- Airport Elevation : 2082 ft
- IATA code : XXN


OERY - Riyadh Air Base

CURRENT METAR :
  • 040200Z 14007KT CAVOK 19/13 Q1017

EXPIRED METARs :
  • 040100Z 16008KT CAVOK 19/13 Q1017
  • 040000Z 14010KT CAVOK 20/13 Q1017

TAF TAF OERY
Valid from the 04 at 00:00 until the 05 at 06:00 UTC


032300Z 0400/0506 VRB03KT 9999 SCT040
TEMPO 0400/0406 3000 BR FEW035CB
BECMG 0406/0408 14014KT
TEMPO 0410/0418 TSRA FEW035CB BKN040
OEJD FIR / Asia



MET'MAP, your aeronautical weather chart ! - Copyright ORBIFLY December 2007 - Disclaimer

ORBIFLY MET'MAP TEAM :

Programming & Development : Alexandra Zaïnal
Concept & original design : Baudouin d'Aumeries
Assistance for programming : Marc-Olivier Méhu
Technical & hardware support : Manuel Goepfert

Contact : metmap@orbifly.com




SOURCES & CREDITS :

   NOAA       Earth
Advisory